Time;durP1;ratioP1;P1;durP2;ratioP2;P2;SDS_P1;SDS_P2;PMS_P1;PMS_P2;Temp;Humidity;BMP_temperature;BMP_pressure;BME280_temperature;BME280_humidity;BME280_pressure;Samples;Min_cycle;Max_cycle;Signal;HPM_P1;HPM_P2
2023/02/08 00:01:38;;;;;;;;;;;;;;;-4.68;96.69;98327.19;5042836;28;19971;-71
2023/02/08 00:04:03;;;;;;;;;;;;;;;-4.61;96.04;98330.59;5023795;28;19921;-70
2023/02/08 00:06:29;;;;;;;;;;;;;;;-4.64;95.41;98328.41;5022385;28;19917;-71
2023/02/08 00:08:54;;;;;;;;;;;;;;;-4.73;96.50;98332.44;5031638;28;19917;-70
2023/02/08 00:11:19;;;;;;;;;;;;;;;-4.81;96.77;98323.69;5037248;28;19963;-70
2023/02/08 00:13:45;;;;;;;;;;;;;;;-4.84;96.66;98326.00;5042670;28;20290;-70
2023/02/08 00:16:11;;;;;;;;;;;;;;;-4.86;96.79;98326.25;5045368;28;20011;-70
2023/02/08 00:18:37;;;;;;;;;;;;;;;-4.86;97.14;98328.91;5060890;28;19924;-70
2023/02/08 00:21:06;;;;;;;;;;;;;;;-4.89;97.02;98317.84;5029406;28;20356;-70
2023/02/08 00:23:31;;;;;;;;;;;;;;;-4.86;96.36;98320.06;5042010;28;19924;-70
2023/02/08 00:25:56;;;;;;;;;;;;;;;-4.85;96.24;98313.69;5042438;28;20278;-70
2023/02/08 00:28:22;;;;;;;;;;;;;;;-4.85;96.45;98311.81;5036086;28;19932;-70
2023/02/08 00:30:47;;;;;;;;;;;;;;;-4.89;96.84;98304.50;5042792;28;19921;-71
2023/02/08 00:33:12;;;;;;;;;;;;;;;-4.86;95.88;98318.22;5037698;28;19970;-71
2023/02/08 00:35:38;;;;;;;;;;;;;;;-4.90;96.39;98310.88;5048668;28;19928;-71
2023/02/08 00:38:03;;;;;;;;;;;;;;;-4.94;97.13;98307.84;5038193;28;20294;-70
2023/02/08 00:40:29;;;;;;;;;;;;;;;-4.94;96.24;98315.03;5040941;28;19921;-71
2023/02/08 00:42:54;;;;;;;;;;;;;;;-5.00;97.00;98312.22;5040696;28;19927;-71
2023/02/08 00:45:19;;;;;;;;;;;;;;;-5.03;96.71;98304.66;5037662;28;19923;-70
2023/02/08 00:47:44;;;;;;;;;;;;;;;-4.96;96.03;98309.13;5043145;28;20027;-71
2023/02/08 00:50:10;;;;;;;;;;;;;;;-4.97;95.89;98308.28;5037219;28;20023;-71
2023/02/08 00:52:35;;;;;;;;;;;;;;;-5.08;97.04;98295.69;5042996;28;19974;-71
2023/02/08 00:55:00;;;;;;;;;;;;;;;-5.08;96.84;98293.81;5042621;28;19929;-71
2023/02/08 00:57:26;;;;;;;;;;;;;;;-5.06;96.65;98290.94;5036710;28;19924;-71
2023/02/08 00:59:51;;;;;;;;;;;;;;;-5.03;95.91;98290.50;5042128;28;19955;-69
2023/02/08 01:02:16;;;;;;;;;;;;;;;-5.04;95.99;98283.50;5036021;28;20285;-71
2023/02/08 01:04:41;;;;;;;;;;;;;;;-5.12;96.68;98290.00;5041771;28;19924;-70
2023/02/08 01:07:07;;;;;;;;;;;;;;;-5.12;96.55;98291.84;5037069;28;19990;-70
2023/02/08 01:09:33;;;;;;;;;;;;;;;-5.17;96.09;98281.84;5054889;28;19916;-71
2023/02/08 01:11:58;;;;;;;;;;;;;;;-5.22;96.64;98282.53;5062259;28;19950;-71
2023/02/08 01:14:24;;;;;;;;;;;;;;;-5.24;96.42;98279.28;5057462;28;20007;-72
2023/02/08 01:16:49;;;;;;;;;;;;;;;-5.28;96.59;98266.56;5061574;28;19921;-72
2023/02/08 01:19:14;;;;;;;;;;;;;;;-5.34;97.07;98272.84;5057241;28;20292;-71
2023/02/08 01:21:41;;;;;;;;;;;;;;;-5.38;96.91;98267.94;5061438;28;19938;-72
2023/02/08 01:24:06;;;;;;;;;;;;;;;-5.39;97.52;98270.81;5054742;28;20427;-72
2023/02/08 01:26:32;;;;;;;;;;;;;;;-5.43;97.37;98266.97;5063092;28;19924;-72
2023/02/08 01:28:58;;;;;;;;;;;;;;;-5.47;97.85;98268.47;5056496;28;19921;-72
2023/02/08 01:31:28;;;;;;;;;;;;;;;-5.43;97.46;98266.97;5043325;28;20920;-71
2023/02/08 01:33:53;;;;;;;;;;;;;;;-5.55;98.19;98272.25;5041278;28;20007;-71
2023/02/08 01:36:19;;;;;;;;;;;;;;;-5.59;98.16;98268.41;5044229;28;19948;-72
2023/02/08 01:38:44;;;;;;;;;;;;;;;-5.61;98.51;98254.47;5059692;28;20019;-71
2023/02/08 01:41:13;;;;;;;;;;;;;;;-5.66;98.62;98263.13;5057442;28;20262;-71
2023/02/08 01:43:57;;;;;;;;;;;;;;;-5.65;98.52;98269.31;5061656;28;19933;-71
2023/02/08 01:46:22;;;;;;;;;;;;;;;-5.70;99.18;98263.81;5057185;28;20372;-72
2023/02/08 01:48:47;;;;;;;;;;;;;;;-5.69;98.76;98258.25;5061500;28;19931;-72
2023/02/08 01:51:15;;;;;;;;;;;;;;;-5.67;98.33;98252.69;5058312;28;20010;-71
2023/02/08 01:53:41;;;;;;;;;;;;;;;-5.68;97.99;98251.06;5062922;28;19924;-71
2023/02/08 01:56:09;;;;;;;;;;;;;;;-5.66;98.46;98257.00;5057073;28;20285;-71
2023/02/08 01:58:37;;;;;;;;;;;;;;;-5.66;97.76;98254.31;5060089;28;19921;-71
2023/02/08 02:01:03;;;;;;;;;;;;;;;-5.73;98.54;98259.72;5059237;28;20023;-70
2023/02/08 02:03:28;;;;;;;;;;;;;;;-5.73;98.15;98258.91;5047201;28;20074;-71
2023/02/08 02:05:56;;;;;;;;;;;;;;;-5.77;98.58;98255.88;5041522;28;19921;-71
2023/02/08 02:08:21;;;;;;;;;;;;;;;-5.80;98.71;98245.63;5041904;28;20445;-72
2023/02/08 02:10:48;;;;;;;;;;;;;;;-5.71;97.89;98249.63;5065388;28;19924;-71
2023/02/08 02:13:18;;;;;;;;;;;;;;;-5.74;98.08;98251.94;5060145;28;20258;-72
2023/02/08 02:15:44;;;;;;;;;;;;;;;-5.74;98.38;98249.28;5063854;28;19920;-72
2023/02/08 02:18:10;;;;;;;;;;;;;;;-5.82;98.71;98245.84;5060383;28;20023;-72
2023/02/08 02:20:48;;;;;;;;;;;;;;;-5.83;98.54;98249.59;5066019;28;19923;-71
2023/02/08 02:23:32;;;;;;;;;;;;;;;-5.83;98.22;98246.09;5059280;28;20011;-71
2023/02/08 02:26:16;;;;;;;;;;;;;;;-5.79;97.93;98239.28;5065324;28;19992;-71
2023/02/08 02:28:42;;;;;;;;;;;;;;;-5.80;97.24;98243.81;5043903;28;20007;-72
2023/02/08 02:31:25;;;;;;;;;;;;;;;-5.83;97.79;98235.44;5039597;28;20003;-70
2023/02/08 02:33:57;;;;;;;;;;;;;;;-5.84;97.56;98233.78;5032888;28;19917;-71
2023/02/08 02:36:22;;;;;;;;;;;;;;;-5.91;97.96;98241.88;5020139;28;20293;-72
2023/02/08 02:39:06;;;;;;;;;;;;;;;-5.88;97.75;98236.09;5038886;28;20393;-70
2023/02/08 02:44:35;;;;;;;;;;;;;;;-5.97;97.64;98230.25;5021222;28;20374;-71
2023/02/08 02:47:07;;;;;;;;;;;;;;;-5.89;97.23;98233.63;5004945;28;19922;-71
2023/02/08 02:49:38;;;;;;;;;;;;;;;-5.90;96.83;98227.50;5004337;28;19917;-71
2023/02/08 02:52:07;;;;;;;;;;;;;;;-5.90;97.00;98230.16;5001786;28;19918;-70
2023/02/08 02:54:37;;;;;;;;;;;;;;;-5.89;96.49;98226.44;5005134;28;20413;-71
2023/02/08 02:57:05;;;;;;;;;;;;;;;-5.90;96.60;98227.50;5017702;28;19922;-69
2023/02/08 02:59:34;;;;;;;;;;;;;;;-5.90;96.77;98240.84;5004481;28;19917;-70
2023/02/08 03:02:00;;;;;;;;;;;;;;;-5.81;96.09;98225.34;5012412;28;19995;-71
2023/02/08 03:04:31;;;;;;;;;;;;;;;-5.85;95.68;98221.47;5017820;28;19940;-72
2023/02/08 03:07:15;;;;;;;;;;;;;;;-5.83;95.68;98227.44;5023483;28;19929;-72
2023/02/08 03:09:59;;;;;;;;;;;;;;;-5.79;95.89;98218.72;5024660;28;20422;-70
2023/02/08 03:12:39;;;;;;;;;;;;;;;-5.79;95.16;98228.59;5018447;28;20338;-71
2023/02/08 03:15:05;;;;;;;;;;;;;;;-5.85;95.01;98219.63;5017155;28;20401;-69
2023/02/08 03:17:33;;;;;;;;;;;;;;;-5.82;95.06;98221.84;5023425;28;19921;-72
2023/02/08 03:20:11;;;;;;;;;;;;;;;-5.86;95.13;98219.88;5022881;28;20004;-72
2023/02/08 03:22:55;;;;;;;;;;;;;;;-5.90;94.95;98230.16;5023292;28;19917;-72
2023/02/08 03:25:23;;;;;;;;;;;;;;;-5.90;95.14;98222.16;5018710;28;19917;-71
2023/02/08 03:27:53;;;;;;;;;;;;;;;-5.91;94.92;98225.84;5023770;28;19975;-72
2023/02/08 03:30:28;;;;;;;;;;;;;;;-5.86;95.25;98228.66;5016866;28;19928;-72
2023/02/08 03:33:12;;;;;;;;;;;;;;;-5.87;95.27;98227.06;5026351;28;20016;-71
2023/02/08 03:35:41;;;;;;;;;;;;;;;-5.97;95.07;98221.44;5040560;28;20571;-72
2023/02/08 03:38:14;;;;;;;;;;;;;;;-6.02;95.69;98226.63;5050474;28;19921;-72
2023/02/08 03:40:48;;;;;;;;;;;;;;;-6.07;95.94;98219.28;5063642;28;20257;-71
2023/02/08 03:43:22;;;;;;;;;;;;;;;-6.03;95.03;98220.50;5057034;28;19985;-72
2023/02/08 03:45:50;;;;;;;;;;;;;;;-6.06;95.58;98218.25;5062712;28;20014;-72
2023/02/08 03:48:16;;;;;;;;;;;;;;;-6.08;95.97;98223.00;5058615;28;20389;-72
2023/02/08 03:50:45;;;;;;;;;;;;;;;-6.05;95.45;98219.91;5063318;28;20007;-72
2023/02/08 03:53:11;;;;;;;;;;;;;;;-6.11;95.76;98222.63;5059792;28;19921;-72
2023/02/08 03:55:37;;;;;;;;;;;;;;;-6.10;95.52;98224.25;5064024;28;19959;-71
2023/02/08 03:58:09;;;;;;;;;;;;;;;-6.12;95.31;98218.31;5060943;28;19921;-70
2023/02/08 04:00:36;;;;;;;;;;;;;;;-6.13;94.96;98219.38;5063064;28;19920;-71
2023/02/08 04:03:07;;;;;;;;;;;;;;;-6.13;95.15;98206.84;5047713;28;19956;-71
2023/02/08 04:05:32;;;;;;;;;;;;;;;-6.21;95.33;98205.28;5046329;28;19983;-71
2023/02/08 04:07:57;;;;;;;;;;;;;;;-6.20;94.91;98204.25;5045421;28;19921;-72
2023/02/08 04:10:23;;;;;;;;;;;;;;;-6.23;95.15;98202.03;5041933;28;20350;-70
2023/02/08 04:12:49;;;;;;;;;;;;;;;-6.26;95.17;98194.47;5044389;28;20016;-71
2023/02/08 04:15:15;;;;;;;;;;;;;;;-6.27;94.83;98195.50;5054438;28;20376;-71
2023/02/08 04:17:42;;;;;;;;;;;;;;;-6.33;94.91;98199.06;5056865;28;19921;-72
2023/02/08 04:20:08;;;;;;;;;;;;;;;-6.28;95.08;98195.72;5039601;28;20292;-71
2023/02/08 04:22:33;;;;;;;;;;;;;;;-6.29;95.21;98196.75;5042767;28;19921;-71
2023/02/08 04:24:58;;;;;;;;;;;;;;;-6.29;94.53;98191.44;5058151;28;19916;-71
2023/02/08 04:27:24;;;;;;;;;;;;;;;-6.24;94.30;98192.41;5039747;28;20826;-71
2023/02/08 04:29:49;;;;;;;;;;;;;;;-6.29;93.57;98191.44;5040998;28;19964;-71
2023/02/08 04:32:14;;;;;;;;;;;;;;;-6.32;94.41;98184.66;5037375;28;20034;-71
2023/02/08 04:34:40;;;;;;;;;;;;;;;-6.30;94.36;98174.63;5037334;28;19925;-72
2023/02/08 04:37:06;;;;;;;;;;;;;;;-6.31;93.91;98177.50;5036662;28;19932;-72
2023/02/08 04:39:31;;;;;;;;;;;;;;;-6.29;93.81;98175.44;5042961;28;19975;-72
2023/02/08 04:41:57;;;;;;;;;;;;;;;-6.27;93.74;98174.16;5042627;28;20010;-72
2023/02/08 04:44:22;;;;;;;;;;;;;;;-6.33;94.06;98179.59;5033631;28;19924;-72
2023/02/08 04:46:47;;;;;;;;;;;;;;;-6.32;93.67;98183.88;5040718;28;19959;-72
2023/02/08 04:49:13;;;;;;;;;;;;;;;-6.35;93.80;98183.28;5020401;28;19924;-71
2023/02/08 04:51:38;;;;;;;;;;;;;;;-6.29;93.84;98184.25;5041529;28;20017;-71
2023/02/08 04:54:03;;;;;;;;;;;;;;;-6.31;93.77;98185.50;5038444;28;19923;-71
2023/02/08 04:56:29;;;;;;;;;;;;;;;-6.29;93.57;98170.09;5040693;28;19970;-71
2023/02/08 04:58:54;;;;;;;;;;;;;;;-6.31;93.97;98172.19;5041455;28;19924;-71
2023/02/08 05:01:19;;;;;;;;;;;;;;;-6.23;93.54;98178.03;5038375;28;19921;-69
2023/02/08 05:03:45;;;;;;;;;;;;;;;-6.22;93.24;98173.50;5041827;28;19917;-69
2023/02/08 05:06:10;;;;;;;;;;;;;;;-6.28;93.49;98175.22;5035630;28;19921;-71
2023/02/08 05:08:36;;;;;;;;;;;;;;;-6.15;92.92;98168.91;5042195;28;19924;-70
2023/02/08 05:11:01;;;;;;;;;;;;;;;-6.18;92.27;98156.81;5041017;28;19923;-69
2023/02/08 05:13:26;;;;;;;;;;;;;;;-6.23;92.07;98156.69;5056917;28;19924;-70
2023/02/08 05:15:51;;;;;;;;;;;;;;;-6.26;92.29;98161.66;5062488;28;20261;-70
2023/02/08 05:18:17;;;;;;;;;;;;;;;-6.27;92.16;98160.03;5058308;28;19924;-70
2023/02/08 05:20:42;;;;;;;;;;;;;;;-6.25;91.98;98163.28;5066898;28;19924;-70
2023/02/08 05:23:07;;;;;;;;;;;;;;;-6.35;92.60;98153.94;5036582;28;19924;-70
2023/02/08 05:25:32;;;;;;;;;;;;;;;-6.32;92.58;98163.34;5058327;28;19939;-70
2023/02/08 05:27:58;;;;;;;;;;;;;;;-6.43;93.10;98158.75;5057398;28;20015;-68
2023/02/08 05:30:24;;;;;;;;;;;;;;;-6.38;93.10;98161.56;5050980;28;20800;-68
2023/02/08 05:32:49;;;;;;;;;;;;;;;-6.39;93.34;98167.94;5053569;28;19923;-68
2023/02/08 05:35:14;;;;;;;;;;;;;;;-6.47;93.75;98165.56;5041303;28;19923;-68
2023/02/08 05:37:40;;;;;;;;;;;;;;;-6.55;93.77;98146.16;5045617;28;19920;-69
2023/02/08 05:40:05;;;;;;;;;;;;;;;-6.43;94.06;98153.41;5047059;28;19967;-70
2023/02/08 05:42:31;;;;;;;;;;;;;;;-6.55;94.06;98146.16;5051016;28;19916;-69
2023/02/08 05:44:56;;;;;;;;;;;;;;;-6.60;94.35;98154.00;5059753;28;19951;-70
2023/02/08 05:47:21;;;;;;;;;;;;;;;-6.62;94.01;98145.41;5053216;28;19932;-70
2023/02/08 05:49:46;;;;;;;;;;;;;;;-6.63;93.97;98158.94;5058327;28;19917;-70
2023/02/08 05:52:12;;;;;;;;;;;;;;;-6.67;94.11;98155.91;5052528;28;19916;-69
2023/02/08 05:54:37;;;;;;;;;;;;;;;-6.75;94.56;98161.53;5053030;28;20485;-69
2023/02/08 05:57:02;;;;;;;;;;;;;;;-6.77;94.58;98166.25;5055635;28;19920;-69
2023/02/08 05:59:28;;;;;;;;;;;;;;;-6.83;95.37;98149.28;5036779;28;19917;-69
2023/02/08 06:01:53;;;;;;;;;;;;;;;-6.71;94.92;98165.38;5051850;28;19917;-68
2023/02/08 06:04:18;;;;;;;;;;;;;;;-6.69;94.22;98167.84;5044295;28;19960;-68
2023/02/08 06:06:43;;;;;;;;;;;;;;;-6.79;95.40;98160.31;5054746;28;19923;-70
2023/02/08 06:09:10;;;;;;;;;;;;;;;-6.84;95.35;98173.47;5053229;28;20445;-68
2023/02/08 06:11:36;;;;;;;;;;;;;;;-6.83;95.28;98172.47;5059733;28;19917;-71
2023/02/08 06:14:02;;;;;;;;;;;;;;;-6.75;95.23;98182.84;5053710;28;19959;-72
2023/02/08 06:16:27;;;;;;;;;;;;;;;-6.80;95.40;98164.84;5026506;28;20011;-70
2023/02/08 06:18:53;;;;;;;;;;;;;;;-6.89;95.89;98182.16;5065645;28;19920;-70
2023/02/08 06:21:18;;;;;;;;;;;;;;;-6.78;96.34;98178.75;5048095;28;19969;-70
2023/02/08 06:23:44;;;;;;;;;;;;;;;-6.64;96.96;98174.13;5067477;28;19924;-70
2023/02/08 06:26:09;;;;;;;;;;;;;;;-6.61;97.54;98184.38;5060506;28;19947;-70
2023/02/08 06:28:34;;;;;;;;;;;;;;;-6.71;95.40;98183.25;5062848;28;19916;-71
2023/02/08 06:30:59;;;;;;;;;;;;;;;-6.70;94.81;98172.34;5064953;28;20006;-70
2023/02/08 06:33:25;;;;;;;;;;;;;;;-6.68;94.64;98178.28;5059941;28;20349;-70
2023/02/08 06:35:50;;;;;;;;;;;;;;;-6.71;94.50;98189.38;5051167;28;19921;-70
2023/02/08 06:38:16;;;;;;;;;;;;;;;-6.68;94.84;98180.94;5038920;28;19928;-70
2023/02/08 06:40:41;;;;;;;;;;;;;;;-6.66;94.65;98194.88;5043628;28;19929;-70
2023/02/08 06:43:06;;;;;;;;;;;;;;;-6.61;94.92;98189.69;5038411;28;20019;-71
2023/02/08 06:45:32;;;;;;;;;;;;;;;-6.59;94.67;98190.28;5042998;28;19947;-71
2023/02/08 06:47:57;;;;;;;;;;;;;;;-6.68;95.20;98190.78;5043890;28;19921;-71
2023/02/08 06:50:22;;;;;;;;;;;;;;;-6.69;94.75;98191.81;5039105;28;20307;-71
2023/02/08 06:52:47;;;;;;;;;;;;;;;-6.66;95.12;98191.38;5042528;28;19921;-70
2023/02/08 06:55:13;;;;;;;;;;;;;;;-6.59;95.00;98192.13;5039467;28;20212;-70
2023/02/08 06:57:38;;;;;;;;;;;;;;;-6.63;94.88;98186.41;5043376;28;20461;-71
2023/02/08 07:00:04;;;;;;;;;;;;;;;-6.71;95.02;98192.03;5040041;28;19921;-72
2023/02/08 07:02:30;;;;;;;;;;;;;;;-6.62;94.95;98189.91;5047437;28;19983;-70
2023/02/08 07:04:55;;;;;;;;;;;;;;;-6.69;95.28;98184.63;5043617;28;20393;-69
2023/02/08 07:07:20;;;;;;;;;;;;;;;-6.67;95.09;98187.88;5039076;28;20751;-72
2023/02/08 07:09:45;;;;;;;;;;;;;;;-6.65;95.08;98193.81;5043081;28;19916;-70
2023/02/08 07:12:11;;;;;;;;;;;;;;;-6.59;95.31;98187.63;5038619;28;20294;-70
2023/02/08 07:14:38;;;;;;;;;;;;;;;-6.53;95.22;98188.59;5043133;28;20361;-70
2023/02/08 07:17:03;;;;;;;;;;;;;;;-6.56;95.08;98189.84;5039945;28;20023;-71
2023/02/08 07:19:28;;;;;;;;;;;;;;;-6.52;94.87;98192.88;5040584;28;20338;-70
2023/02/08 07:21:54;;;;;;;;;;;;;;;-6.47;94.93;98195.69;5044755;28;20015;-70
2023/02/08 07:24:20;;;;;;;;;;;;;;;-6.45;94.94;98190.16;5038047;28;19940;-71
2023/02/08 07:26:45;;;;;;;;;;;;;;;-6.20;94.76;98196.25;5043445;28;19917;-71
2023/02/08 07:29:10;;;;;;;;;;;;;;;-6.03;92.87;98185.81;5038371;28;19928;-71
2023/02/08 07:31:36;;;;;;;;;;;;;;;-5.98;91.68;98191.28;5043274;28;19917;-71
2023/02/08 07:34:01;;;;;;;;;;;;;;;-5.58;90.81;98188.09;5041749;28;19917;-72
2023/02/08 07:36:26;;;;;;;;;;;;;;;-5.31;89.37;98198.41;5046623;28;19959;-70
2023/02/08 07:38:52;;;;;;;;;;;;;;;-5.44;88.47;98180.72;5043571;28;19960;-70
2023/02/08 07:41:17;;;;;;;;;;;;;;;-5.55;88.63;98192.16;5038725;28;19923;-70
2023/02/08 07:43:42;;;;;;;;;;;;;;;-5.31;88.76;98193.06;5042787;28;19916;-70
2023/02/08 07:46:08;;;;;;;;;;;;;;;-5.58;88.51;98185.44;5036992;28;19967;-70
2023/02/08 07:48:34;;;;;;;;;;;;;;;-5.32;88.24;98193.28;5042672;28;19924;-71
2023/02/08 07:50:59;;;;;;;;;;;;;;;-5.11;88.07;98189.28;5042649;28;19916;-71
2023/02/08 07:53:24;;;;;;;;;;;;;;;-5.36;87.98;98194.81;5037377;28;19917;-71
2023/02/08 07:55:50;;;;;;;;;;;;;;;-5.24;87.43;98193.78;5043692;28;19923;-72
2023/02/08 07:58:15;;;;;;;;;;;;;;;-4.98;86.15;98191.75;5019778;28;20279;-73
2023/02/08 08:00:40;;;;;;;;;;;;;;;-4.89;87.01;98198.38;5041039;28;20609;-70
2023/02/08 08:03:05;;;;;;;;;;;;;;;-4.70;86.43;98206.31;5037972;28;19920;-71
2023/02/08 08:05:31;;;;;;;;;;;;;;;-4.59;84.44;98196.66;5040879;28;20373;-70
2023/02/08 08:07:56;;;;;;;;;;;;;;;-4.29;83.93;98217.97;5043134;28;19967;-70
2023/02/08 08:10:21;;;;;;;;;;;;;;;-4.77;85.37;98216.31;5034507;28;19982;-69
2023/02/08 08:12:47;;;;;;;;;;;;;;;-3.65;81.81;98212.63;5042503;28;20015;-69
2023/02/08 08:15:12;;;;;;;;;;;;;;;-3.41;79.66;98221.41;5030443;28;19923;-70
2023/02/08 08:17:40;;;;;;;;;;;;;;;-4.25;81.75;98221.78;5038304;28;19925;-70
2023/02/08 08:20:06;;;;;;;;;;;;;;;-4.53;83.93;98219.84;5036790;28;20019;-70
2023/02/08 08:22:32;;;;;;;;;;;;;;;-4.49;83.92;98212.97;5043096;28;19921;-71
2023/02/08 08:24:58;;;;;;;;;;;;;;;-4.22;83.59;98232.03;5043285;28;19975;-70
2023/02/08 08:27:24;;;;;;;;;;;;;;;-4.47;84.12;98225.03;5017676;28;20745;-70
2023/02/08 08:29:49;;;;;;;;;;;;;;;-4.22;83.99;98224.81;5041371;28;19916;-70
2023/02/08 08:32:14;;;;;;;;;;;;;;;-3.88;83.22;98229.56;5037129;28;20374;-70
2023/02/08 08:34:40;;;;;;;;;;;;;;;-4.00;83.01;98234.13;5046673;28;19929;-70
2023/02/08 08:37:05;;;;;;;;;;;;;;;-2.96;79.28;98228.66;5036458;28;20381;-70
2023/02/08 08:39:31;;;;;;;;;;;;;;;-3.81;80.39;98230.25;5041918;28;19958;-73
2023/02/08 08:41:56;;;;;;;;;;;;;;;-3.49;81.62;98227.94;5042032;28;20424;-70
2023/02/08 08:44:22;;;;;;;;;;;;;;;-3.95;81.92;98223.53;5036408;28;20497;-71
2023/02/08 08:46:47;;;;;;;;;;;;;;;-3.30;78.90;98233.13;5040977;28;19960;-71
2023/02/08 08:49:12;;;;;;;;;;;;;;;-2.57;79.17;98236.81;5037443;28;20743;-71
2023/02/08 08:51:38;;;;;;;;;;;;;;;-2.93;76.01;98227.38;5041629;28;19925;-71
2023/02/08 08:54:03;;;;;;;;;;;;;;;-3.56;79.75;98223.78;5041750;28;20385;-71
2023/02/08 08:56:29;;;;;;;;;;;;;;;-2.87;77.08;98226.38;5041399;28;19928;-71
2023/02/08 08:58:55;;;;;;;;;;;;;;;-3.58;78.66;98210.63;5049713;28;19921;-71
2023/02/08 09:01:20;;;;;;;;;;;;;;;-3.19;79.17;98218.84;5047217;28;20404;-71
2023/02/08 09:03:45;;;;;;;;;;;;;;;-2.34;77.64;98230.47;5041362;28;19959;-72
2023/02/08 09:06:11;;;;;;;;;;;;;;;-3.43;78.25;98230.72;5036222;28;20015;-71
2023/02/08 09:08:36;;;;;;;;;;;;;;;-3.39;79.75;98226.53;5046101;28;19986;-72
2023/02/08 09:11:05;;;;;;;;;;;;;;;-3.14;79.32;98229.66;5040341;28;20294;-71
2023/02/08 09:13:30;;;;;;;;;;;;;;;-2.82;77.33;98231.84;5041246;28;19921;-71
2023/02/08 09:15:56;;;;;;;;;;;;;;;-3.58;80.15;98226.69;5022866;28;20377;-72
2023/02/08 09:18:21;;;;;;;;;;;;;;;-3.32;79.65;98227.19;5040760;28;19921;-72
2023/02/08 09:20:46;;;;;;;;;;;;;;;-2.08;78.69;98230.84;5026744;28;19917;-72
2023/02/08 09:23:13;;;;;;;;;;;;;;;-2.82;76.43;98239.09;5039957;28;19923;-72
2023/02/08 09:25:38;;;;;;;;;;;;;;;-2.75;77.00;98242.44;5044784;28;19967;-72
2023/02/08 09:28:04;;;;;;;;;;;;;;;-2.59;78.68;98247.00;5042216;28;19972;-71
2023/02/08 09:30:29;;;;;;;;;;;;;;;-2.13;75.39;98253.03;5044461;28;19920;-72
2023/02/08 09:32:55;;;;;;;;;;;;;;;-1.62;73.16;98249.44;5045908;28;19962;-72
2023/02/08 09:35:20;;;;;;;;;;;;;;;-2.40;76.76;98255.59;5039193;28;20013;-72
2023/02/08 09:37:45;;;;;;;;;;;;;;;-1.74;74.12;98244.19;5036610;28;19924;-72
2023/02/08 09:40:34;;;;;;;;;;;;;;;-2.44;74.09;98242.91;5040156;28;19932;-72
2023/02/08 09:43:11;;;;;;;;;;;;;;;-2.32;77.20;98244.47;5033748;28;19917;-72
2023/02/08 09:45:43;;;;;;;;;;;;;;;-1.86;73.44;98243.50;5042969;28;20289;-69
2023/02/08 09:48:15;;;;;;;;;;;;;;;-2.08;73.17;98252.31;5036533;28;20285;-70
2023/02/08 09:50:40;;;;;;;;;;;;;;;-2.56;74.77;98246.47;5044726;28;19917;-73
2023/02/08 09:53:08;;;;;;;;;;;;;;;-2.13;76.30;98239.63;5040058;28;19997;-70
2023/02/08 09:55:45;;;;;;;;;;;;;;;-0.97;70.94;98250.47;5043983;28;20059;-71
2023/02/08 09:58:18;;;;;;;;;;;;;;;-1.86;72.61;98249.66;5040305;28;19921;-70
2023/02/08 10:00:45;;;;;;;;;;;;;;;-1.45;72.85;98242.13;5027484;28;20010;-70
2023/02/08 10:03:25;;;;;;;;;;;;;;;-1.16;73.42;98247.28;5029083;28;20387;-70
2023/02/08 10:05:50;;;;;;;;;;;;;;;-1.00;69.38;98245.59;5044534;28;19971;-73
2023/02/08 10:08:15;;;;;;;;;;;;;;;-1.45;70.85;98238.63;5039456;28;19975;-70
2023/02/08 10:10:43;;;;;;;;;;;;;;;-1.15;71.95;98243.56;5045552;28;20368;-70
2023/02/08 10:13:09;;;;;;;;;;;;;;;-1.92;73.38;98246.09;5039620;28;19975;-72
2023/02/08 10:15:42;;;;;;;;;;;;;;;-1.32;70.75;98243.63;5044156;28;19952;-70
2023/02/08 10:18:26;;;;;;;;;;;;;;;-1.62;72.26;98244.06;5038544;28;19983;-72
2023/02/08 10:20:54;;;;;;;;;;;;;;;-1.56;73.94;98249.25;5044650;28;20014;-71
2023/02/08 10:23:31;;;;;;;;;;;;;;;-1.35;72.32;98236.09;5038822;28;19924;-71
2023/02/08 10:26:03;;;;;;;;;;;;;;;-1.81;72.70;98244.38;5044675;28;20377;-71
2023/02/08 10:28:31;;;;;;;;;;;;;;;-1.80;73.31;98250.53;5042703;28;19921;-71
2023/02/08 10:31:14;;;;;;;;;;;;;;;-1.44;74.43;98242.94;5064479;28;19927;-72
2023/02/08 10:33:46;;;;;;;;;;;;;;;-1.24;72.41;98250.41;5046925;28;19921;-73
2023/02/08 10:36:17;;;;;;;;;;;;;;;-1.33;72.67;98242.00;5031966;28;19917;-77
2023/02/08 10:38:43;;;;;;;;;;;;;;;-1.48;72.01;98239.94;5019191;28;19927;-71
2023/02/08 10:41:12;;;;;;;;;;;;;;;-1.20;70.70;98233.53;4999460;28;19921;-71
2023/02/08 10:43:43;;;;;;;;;;;;;;;-0.16;69.42;98228.00;5002895;28;19925;-71
2023/02/08 10:46:24;;;;;;;;;;;;;;;0.37;65.61;98223.44;4997647;28;19961;-71
2023/02/08 10:49:02;;;;;;;;;;;;;;;1.02;63.38;98217.69;5004030;28;19925;-71
2023/02/08 10:51:28;;;;;;;;;;;;;;;0.59;63.69;98221.63;5020571;28;19917;-72
2023/02/08 10:53:54;;;;;;;;;;;;;;;1.31;63.07;98218.03;5024277;28;20517;-72
2023/02/08 10:56:57;;;;;;;;;;;;;;;0.12;67.03;98215.22;5017855;28;19921;-72
2023/02/08 10:59:44;;;;;;;;;;;;;;;0.83;62.72;98208.47;4947067;28;20580;-71
2023/02/08 11:02:25;;;;;;;;;;;;;;;-0.58;66.63;98207.22;5032438;28;20062;-70
2023/02/08 11:05:03;;;;;;;;;;;;;;;-0.52;67.62;98205.38;5025353;28;19974;-70
2023/02/08 11:07:28;;;;;;;;;;;;;;;-0.21;66.01;98211.81;5039625;28;19946;-72
2023/02/08 11:10:11;;;;;;;;;;;;;;;-0.35;66.85;98197.16;5055354;28;20009;-72
2023/02/08 11:12:37;;;;;;;;;;;;;;;-0.62;67.28;98182.69;5042951;28;19949;-72
2023/02/08 11:15:02;;;;;;;;;;;;;;;-0.82;68.51;98183.34;5041744;28;20297;-72
2023/02/08 11:17:30;;;;;;;;;;;;;;;-0.69;67.14;98181.31;5040648;28;19921;-71
2023/02/08 11:19:57;;;;;;;;;;;;;;;-0.53;67.38;98187.63;5043891;28;19923;-71
2023/02/08 11:22:24;;;;;;;;;;;;;;;-0.33;67.59;98181.56;5020966;28;20038;-71
2023/02/08 11:24:57;;;;;;;;;;;;;;;-0.30;66.91;98181.06;5042911;28;19932;-71
2023/02/08 11:27:31;;;;;;;;;;;;;;;-0.48;68.22;98177.69;5038525;28;20940;-72
2023/02/08 11:30:08;;;;;;;;;;;;;;;0.00;64.81;98172.34;5044516;28;20361;-72
2023/02/08 11:32:34;;;;;;;;;;;;;;;-0.07;64.24;98169.88;5042268;28;19917;-72
2023/02/08 11:35:11;;;;;;;;;;;;;;;-0.07;64.39;98174.47;5042853;28;19927;-72
2023/02/08 11:37:36;;;;;;;;;;;;;;;0.20;63.81;98163.53;5040824;28;19959;-72
2023/02/08 11:40:02;;;;;;;;;;;;;;;0.42;63.73;98163.34;5041858;28;20441;-72
2023/02/08 11:42:31;;;;;;;;;;;;;;;0.88;63.55;98168.88;5040817;28;19990;-72
2023/02/08 11:44:58;;;;;;;;;;;;;;;1.37;60.80;98164.00;5025572;28;19923;-73
2023/02/08 11:47:25;;;;;;;;;;;;;;;0.93;60.19;98149.97;5039585;28;20201;-72
2023/02/08 11:49:52;;;;;;;;;;;;;;;0.92;62.91;98159.16;5043792;28;19924;-72
2023/02/08 11:52:24;;;;;;;;;;;;;;;1.13;61.15;98159.97;5038104;28;20440;-72
2023/02/08 11:54:49;;;;;;;;;;;;;;;0.23;62.11;98154.09;5042736;28;19924;-72
2023/02/08 11:57:22;;;;;;;;;;;;;;;0.13;62.24;98144.91;5038441;28;20340;-72
2023/02/08 11:59:50;;;;;;;;;;;;;;;0.92;60.48;98155.66;5048118;28;19917;-72
2023/02/08 12:02:29;;;;;;;;;;;;;;;0.90;59.88;98152.38;5060987;28;19917;-72
2023/02/08 12:04:56;;;;;;;;;;;;;;;0.97;61.59;98144.84;5070588;28;19916;-72
2023/02/08 12:07:35;;;;;;;;;;;;;;;0.67;60.49;98132.94;5059111;28;19917;-72
2023/02/08 12:10:07;;;;;;;;;;;;;;;0.93;58.50;98144.56;5062084;28;19916;-72
2023/02/08 12:12:35;;;;;;;;;;;;;;;1.04;59.19;98134.59;5061786;28;19920;-72
2023/02/08 12:15:15;;;;;;;;;;;;;;;2.12;55.01;98133.63;5063199;28;19917;-71
2023/02/08 12:17:55;;;;;;;;;;;;;;;1.20;56.83;98126.50;5062861;28;19920;-71
2023/02/08 12:20:24;;;;;;;;;;;;;;;0.71;58.10;98128.63;5056848;28;19916;-72
2023/02/08 12:22:52;;;;;;;;;;;;;;;0.94;58.65;98119.22;5062962;28;19963;-71
2023/02/08 12:25:44;;;;;;;;;;;;;;;1.21;58.76;98120.03;5057270;28;20007;-71
2023/02/08 12:28:12;;;;;;;;;;;;;;;1.22;56.75;98116.25;5036119;28;20278;-71
2023/02/08 12:30:42;;;;;;;;;;;;;;;1.29;57.85;98108.69;5062843;28;20216;-71
2023/02/08 12:33:28;;;;;;;;;;;;;;;1.75;56.55;98092.41;5057014;28;19950;-71
2023/02/08 12:36:00;;;;;;;;;;;;;;;2.40;58.12;98089.69;5051934;28;20440;-71
2023/02/08 12:42:11;;;;;;;;;;;;;;;3.19;54.49;98088.88;5021589;28;19932;-72
2023/02/08 12:44:54;;;;;;;;;;;;;;;2.23;52.47;98084.66;4943333;28;19918;-72
2023/02/08 12:47:23;;;;;;;;;;;;;;;1.92;53.80;98073.94;5012870;28;19917;-72
2023/02/08 12:49:51;;;;;;;;;;;;;;;3.38;50.61;98076.19;5024351;28;20010;-70
2023/02/08 12:52:22;;;;;;;;;;;;;;;3.85;55.35;98068.38;5017144;28;19936;-71
2023/02/08 12:54:49;;;;;;;;;;;;;;;3.77;54.24;98064.44;5023159;28;19917;-71
2023/02/08 12:57:17;;;;;;;;;;;;;;;4.05;54.35;98053.78;5015838;28;20014;-71
2023/02/08 12:59:45;;;;;;;;;;;;;;;4.18;52.87;98060.41;5020853;28;19921;-71